Time;durP1;ratioP1;P1;durP2;ratioP2;P2;SDS_P1;SDS_P2;PMS_P1;PMS_P2;Temp;Humidity;BMP_temperature;BMP_pressure;BME280_temperature;BME280_humidity;BME280_pressure;Samples;Min_cycle;Max_cycle;Signal;HPM_P1;HPM_P2
2021/06/22 00:00:33;;;;;;;1.00;0.90;;;19.70;98.50;;;;;;5090438;28;20107;-60
2021/06/22 00:02:59;;;;;;;1.42;0.80;;;19.70;98.60;;;;;;5089779;28;20032;-60
2021/06/22 00:05:26;;;;;;;1.77;0.90;;;19.80;98.50;;;;;;5090451;28;20032;-60
2021/06/22 00:07:53;;;;;;;1.42;1.00;;;19.70;97.80;;;;;;5089735;28;20103;-60
2021/06/22 00:10:25;;;;;;;1.10;1.00;;;19.60;97.70;;;;;;5090453;28;20028;-60
2021/06/22 00:12:51;;;;;;;1.67;0.90;;;19.50;97.70;;;;;;5089698;28;20032;-60
2021/06/22 00:15:19;;;;;;;1.58;0.45;;;19.50;97.70;;;;;;5071817;28;20047;-60
2021/06/22 00:17:45;;;;;;;1.00;0.85;;;19.50;98.30;;;;;;5071528;28;20115;-75
2021/06/22 00:20:12;;;;;;;0.68;0.60;;;19.40;98.50;;;;;;5090343;28;20048;-60
2021/06/22 00:22:39;;;;;;;1.27;0.70;;;19.50;98.70;;;;;;5090241;28;20024;-59
2021/06/22 00:25:06;;;;;;;0.70;0.50;;;19.50;98.50;;;;;;5089490;28;20047;-60
2021/06/22 00:27:32;;;;;;;1.20;0.52;;;19.60;98.40;;;;;;5090157;28;20457;-60
2021/06/22 00:29:58;;;;;;;0.52;0.52;;;19.60;98.20;;;;;;5089109;28;20122;-60
2021/06/22 00:32:24;;;;;;;0.47;0.47;;;19.60;98.50;;;;;;5072022;28;20020;-60
2021/06/22 00:34:50;;;;;;;0.70;0.55;;;19.60;98.80;;;;;;5071215;28;20142;-60
2021/06/22 00:37:18;;;;;;;0.80;0.60;;;19.40;98.90;;;;;;5090040;28;20056;-59
2021/06/22 00:39:44;;;;;;;0.75;0.52;;;19.50;99.00;;;;;;5089630;28;20025;-62
2021/06/22 00:42:11;;;;;;;0.40;0.35;;;19.40;99.10;;;;;;5073612;28;20107;-60
2021/06/22 00:44:43;;;;;;;0.50;0.25;;;19.50;99.10;;;;;;5093719;28;20039;-60
2021/06/22 00:47:09;;;;;;;0.70;0.50;;;19.50;99.10;;;;;;5093215;28;20048;-59
2021/06/22 00:49:35;;;;;;;0.70;0.52;;;19.50;99.10;;;;;;5093532;28;20461;-59
2021/06/22 00:52:01;;;;;;;4.13;1.05;;;19.50;98.80;;;;;;5093093;28;20056;-60
2021/06/22 00:54:26;;;;;;;1.30;0.30;;;19.40;99.30;;;;;;5093238;28;20032;-59
2021/06/22 00:56:52;;;;;;;2.40;0.40;;;19.40;99.10;;;;;;5093039;28;20047;-60
2021/06/22 00:59:18;;;;;;;0.50;0.30;;;19.30;99.50;;;;;;5075435;28;20079;-59
2021/06/22 01:01:45;;;;;;;0.60;0.15;;;19.30;99.50;;;;;;5093612;28;20027;-60
2021/06/22 01:04:13;;;;;;;0.30;0.20;;;19.40;99.60;;;;;;5093490;28;20035;-60
2021/06/22 01:06:39;;;;;;;0.95;0.30;;;19.30;99.50;;;;;;5071337;28;20123;-59
2021/06/22 01:09:05;;;;;;;1.98;0.30;;;19.30;99.60;;;;;;5070745;28;20224;-59
2021/06/22 01:11:31;;;;;;;1.30;0.20;;;19.40;99.20;;;;;;5071143;28;20028;-59
2021/06/22 01:13:56;;;;;;;2.50;0.28;;;19.40;99.10;;;;;;5070630;28;20058;-60
2021/06/22 01:16:26;;;;;;;0.52;0.10;;;19.30;99.40;;;;;;5053627;28;20179;-59
2021/06/22 01:19:04;;;;;;;0.28;0.28;;;19.30;99.30;;;;;;5069618;28;20064;-60
2021/06/22 01:21:32;;;;;;;0.50;0.32;;;19.30;99.40;;;;;;5053674;28;20044;-64
2021/06/22 01:24:08;;;;;;;0.82;0.30;;;19.20;99.60;;;;;;5069869;28;20481;-64
2021/06/22 01:26:36;;;;;;;1.05;0.20;;;19.10;99.70;;;;;;5053866;28;20043;-59
2021/06/22 01:29:04;;;;;;;2.53;0.50;;;19.20;99.70;;;;;;5053179;28;20032;-60
2021/06/22 01:31:30;;;;;;;0.35;0.30;;;19.10;99.70;;;;;;5070240;28;20075;-59
2021/06/22 01:33:55;;;;;;;0.45;0.13;;;19.10;99.80;;;;;;5069643;28;20024;-60
2021/06/22 01:36:21;;;;;;;0.60;0.25;;;19.10;99.70;;;;;;5053276;28;20024;-60
2021/06/22 01:38:48;;;;;;;0.40;0.20;;;19.10;99.80;;;;;;5072155;28;20036;-60
2021/06/22 01:41:13;;;;;;;0.77;0.30;;;19.00;99.90;;;;;;5071857;28;20029;-60
2021/06/22 01:43:39;;;;;;;0.68;0.20;;;19.00;99.60;;;;;;5069796;28;20028;-60
2021/06/22 01:46:05;;;;;;;1.27;0.20;;;19.00;99.30;;;;;;5064808;28;20462;-59
2021/06/22 01:48:31;;;;;;;0.70;0.30;;;19.00;99.30;;;;;;5053830;28;20326;-59
2021/06/22 01:50:57;;;;;;;0.40;0.10;;;18.90;99.10;;;;;;5052825;28;20432;-59
2021/06/22 01:53:24;;;;;;;3.20;0.30;;;19.00;99.20;;;;;;5051522;28;20447;-59
2021/06/22 01:55:51;;;;;;;2.35;0.20;;;19.00;99.30;;;;;;5051867;28;20550;-59
2021/06/22 01:58:19;;;;;;;0.40;0.20;;;19.10;99.00;;;;;;5050281;28;20025;-60
2021/06/22 02:00:48;;;;;;;3.72;0.10;;;19.00;98.90;;;;;;5050694;28;20343;-59
2021/06/22 02:03:19;;;;;;;0.60;0.20;;;19.00;99.10;;;;;;5049942;28;20455;-59
2021/06/22 02:05:46;;;;;;;0.30;0.05;;;19.00;99.20;;;;;;5051798;28;20128;-60
2021/06/22 02:08:13;;;;;;;0.32;0.10;;;19.00;99.00;;;;;;5051435;28;20365;-59
2021/06/22 02:10:38;;;;;;;5.45;0.55;;;19.00;99.00;;;;;;5051819;28;20048;-59
2021/06/22 02:13:05;;;;;;;0.52;0.28;;;19.00;98.80;;;;;;5051329;28;20025;-59
2021/06/22 02:15:31;;;;;;;0.13;0.10;;;18.90;98.90;;;;;;5051353;28;20041;-58
2021/06/22 02:17:57;;;;;;;2.50;0.10;;;18.90;98.80;;;;;;5050843;28;20095;-59
2021/06/22 02:20:24;;;;;;;0.40;0.10;;;19.00;98.90;;;;;;5069488;28;20051;-58
2021/06/22 02:22:49;;;;;;;0.10;0.10;;;18.90;99.00;;;;;;5053532;28;20032;-58
2021/06/22 02:25:15;;;;;;;0.45;0.00;;;18.90;99.30;;;;;;5070431;28;20335;-58
2021/06/22 02:27:42;;;;;;;1.23;0.20;;;18.70;99.10;;;;;;5071387;28;20114;-58
2021/06/22 02:30:14;;;;;;;0.30;0.10;;;18.80;99.20;;;;;;5070457;28;20103;-59
2021/06/22 02:32:40;;;;;;;0.17;0.10;;;18.80;99.00;;;;;;5070958;28;20028;-58
2021/06/22 02:35:09;;;;;;;0.45;0.10;;;18.80;99.10;;;;;;5070729;28;20032;-59
2021/06/22 02:37:37;;;;;;;0.93;0.10;;;18.70;99.30;;;;;;5071562;28;20030;-59
2021/06/22 02:40:04;;;;;;;0.20;0.10;;;18.70;99.50;;;;;;5052675;28;20074;-59
2021/06/22 02:42:29;;;;;;;0.93;0.10;;;18.70;99.60;;;;;;5053254;28;20426;-59
2021/06/22 02:44:55;;;;;;;2.50;0.47;;;18.70;99.40;;;;;;5052564;28;20082;-60
2021/06/22 02:47:20;;;;;;;2.08;0.77;;;18.70;99.40;;;;;;5053079;28;20051;-58
2021/06/22 02:49:46;;;;;;;0.50;0.20;;;18.70;99.20;;;;;;5071341;28;20374;-59
2021/06/22 02:52:12;;;;;;;1.95;0.30;;;18.80;99.20;;;;;;5070666;28;20028;-58
2021/06/22 02:54:38;;;;;;;0.10;0.00;;;18.70;99.30;;;;;;5070757;28;20483;-60
2021/06/22 02:57:05;;;;;;;0.55;0.20;;;18.70;99.40;;;;;;5070446;28;20070;-58
2021/06/22 02:59:31;;;;;;;0.25;0.10;;;18.70;99.30;;;;;;5053224;28;20025;-59
2021/06/22 03:01:57;;;;;;;0.55;0.10;;;18.60;99.30;;;;;;5070251;28;20081;-59
2021/06/22 03:04:22;;;;;;;0.63;0.25;;;18.50;99.40;;;;;;5070483;28;20381;-58
2021/06/22 03:06:48;;;;;;;1.17;0.10;;;18.50;99.50;;;;;;5070534;28;20039;-58
2021/06/22 03:09:14;;;;;;;0.55;0.10;;;18.60;99.40;;;;;;5069976;28;20040;-60
2021/06/22 03:11:39;;;;;;;2.00;0.10;;;18.60;99.40;;;;;;5070579;28;20111;-60
2021/06/22 03:14:05;;;;;;;1.05;0.20;;;18.60;99.40;;;;;;5070096;28;20029;-61
2021/06/22 03:16:30;;;;;;;0.32;0.10;;;18.60;99.50;;;;;;5070980;28;20466;-60
2021/06/22 03:18:56;;;;;;;0.38;0.00;;;18.50;99.80;;;;;;5070206;28;20083;-75
2021/06/22 03:21:22;;;;;;;0.55;0.10;;;18.60;99.70;;;;;;5070541;28;20025;-60
2021/06/22 03:23:49;;;;;;;0.10;0.00;;;18.40;99.70;;;;;;5070012;28;20099;-58
2021/06/22 03:26:15;;;;;;;0.55;0.10;;;18.50;99.70;;;;;;5051576;28;20103;-59
2021/06/22 03:28:41;;;;;;;1.40;0.10;;;18.50;99.70;;;;;;5052419;28;20032;-58
2021/06/22 03:31:07;;;;;;;1.48;0.10;;;18.50;99.70;;;;;;5051497;28;20086;-58
2021/06/22 03:33:32;;;;;;;2.17;0.30;;;18.40;99.70;;;;;;5052168;28;20454;-59
2021/06/22 03:35:58;;;;;;;0.77;0.15;;;18.40;99.90;;;;;;5069723;28;20036;-59
2021/06/22 03:38:24;;;;;;;1.95;0.20;;;18.40;99.90;;;;;;5052309;28;20054;-58
2021/06/22 03:40:50;;;;;;;2.13;0.50;;;18.30;99.90;;;;;;5070033;28;20036;-59
2021/06/22 03:43:15;;;;;;;2.13;0.22;;;18.40;99.90;;;;;;5069374;28;20071;-59
2021/06/22 03:45:41;;;;;;;1.33;0.30;;;18.30;99.90;;;;;;5051946;28;20052;-59
2021/06/22 03:48:07;;;;;;;1.23;0.30;;;18.20;99.90;;;;;;5069756;28;20476;-59
2021/06/22 03:50:34;;;;;;;1.33;0.30;;;18.20;99.90;;;;;;5069974;28;20441;-58
2021/06/22 03:53:00;;;;;;;0.57;0.25;;;18.20;99.90;;;;;;5069220;28;20033;-59
2021/06/22 03:55:26;;;;;;;4.13;0.20;;;18.30;99.90;;;;;;5070023;28;20035;-59
2021/06/22 03:57:56;;;;;;;0.25;0.22;;;18.30;99.80;;;;;;5069980;28;20024;-58
2021/06/22 04:00:22;;;;;;;1.20;0.20;;;18.10;99.90;;;;;;5069157;28;20036;-58
2021/06/22 04:02:49;;;;;;;0.80;0.17;;;18.10;99.90;;;;;;5069689;28;20020;-58
2021/06/22 04:05:15;;;;;;;6.28;0.43;;;18.20;99.60;;;;;;5050973;28;20043;-58
2021/06/22 04:07:41;;;;;;;1.25;0.10;;;18.30;99.70;;;;;;5069987;28;20033;-59
2021/06/22 04:10:07;;;;;;;15.02;1.88;;;18.20;99.40;;;;;;5069186;28;20025;-59
2021/06/22 04:12:33;;;;;;;1.35;0.17;;;18.20;99.20;;;;;;5069678;28;20035;-60
2021/06/22 04:14:59;;;;;;;2.65;0.10;;;18.10;99.40;;;;;;5069275;28;20025;-74
2021/06/22 04:17:25;;;;;;;0.10;0.10;;;18.20;99.20;;;;;;5072798;28;20354;-58
2021/06/22 04:19:51;;;;;;;5.35;1.85;;;18.10;99.20;;;;;;5073499;28;20534;-60
2021/06/22 04:22:16;;;;;;;0.73;0.05;;;18.10;99.10;;;;;;5054841;28;20020;-58
2021/06/22 04:24:42;;;;;;;0.95;0.20;;;18.20;99.20;;;;;;5073525;28;20123;-59
2021/06/22 04:27:08;;;;;;;0.30;0.15;;;18.20;98.70;;;;;;5072172;28;20135;-60
2021/06/22 04:29:34;;;;;;;1.73;0.30;;;18.20;99.00;;;;;;5073533;28;20470;-60
2021/06/22 04:32:00;;;;;;;1.23;0.28;;;18.20;99.10;;;;;;5055516;28;20024;-58
2021/06/22 04:34:26;;;;;;;4.22;0.10;;;18.20;99.00;;;;;;5055623;28;20116;-59
2021/06/22 04:36:52;;;;;;;0.52;0.25;;;18.30;99.00;;;;;;5055491;28;20111;-59
2021/06/22 04:39:19;;;;;;;0.15;0.13;;;18.40;99.00;;;;;;5054766;28;20462;-60
2021/06/22 04:41:44;;;;;;;0.55;0.20;;;18.30;98.90;;;;;;5055215;28;20174;-60
2021/06/22 04:44:10;;;;;;;0.13;0.10;;;18.40;98.70;;;;;;5072510;28;20131;-60
2021/06/22 04:46:36;;;;;;;0.20;0.17;;;18.40;98.80;;;;;;5072750;28;20079;-63
2021/06/22 04:49:02;;;;;;;3.03;0.30;;;18.50;98.90;;;;;;5072374;28;20035;-72
2021/06/22 04:51:34;;;;;;;1.35;0.20;;;18.40;98.80;;;;;;5072832;28;20055;-60
2021/06/22 04:54:00;;;;;;;0.75;0.20;;;18.50;98.70;;;;;;5073007;28;20071;-60
2021/06/22 04:56:26;;;;;;;0.70;0.10;;;18.40;99.00;;;;;;5072206;28;20409;-60
2021/06/22 04:58:55;;;;;;;2.33;0.32;;;18.50;98.90;;;;;;5072542;28;20070;-59
2021/06/22 05:01:21;;;;;;;5.97;0.40;;;18.50;98.80;;;;;;5053639;28;20316;-60
2021/06/22 05:03:47;;;;;;;0.52;0.30;;;18.50;98.80;;;;;;5072103;28;20032;-59
2021/06/22 05:06:12;;;;;;;0.60;0.60;;;18.50;98.70;;;;;;5053175;28;20575;-60
2021/06/22 05:08:39;;;;;;;2.20;0.30;;;18.40;99.00;;;;;;5072834;28;20111;-60
2021/06/22 05:11:05;;;;;;;1.08;0.20;;;18.50;98.70;;;;;;5072364;28;20029;-62
2021/06/22 05:13:32;;;;;;;1.25;0.52;;;18.50;98.90;;;;;;5072562;28;20477;-60
2021/06/22 05:15:57;;;;;;;6.57;1.00;;;18.40;99.00;;;;;;5072243;28;20036;-60
2021/06/22 05:18:23;;;;;;;4.82;1.27;;;18.50;99.10;;;;;;5071497;28;20334;-60
2021/06/22 05:20:49;;;;;;;2.20;0.32;;;18.50;99.10;;;;;;5053847;28;20170;-59
2021/06/22 05:23:15;;;;;;;1.10;0.30;;;18.50;99.20;;;;;;5075702;28;20029;-62
2021/06/22 05:25:41;;;;;;;4.97;0.75;;;18.60;99.20;;;;;;5092053;28;20079;-61
2021/06/22 05:28:06;;;;;;;3.70;1.20;;;18.80;98.80;;;;;;5090264;28;20031;-61
2021/06/22 05:30:32;;;;;;;9.70;1.30;;;18.70;99.50;;;;;;5092068;28;20101;-62
2021/06/22 05:32:58;;;;;;;4.38;1.10;;;18.80;99.90;;;;;;5107459;28;20032;-62
2021/06/22 05:35:24;;;;;;;3.35;0.70;;;18.90;99.50;;;;;;5091989;28;20145;-62
2021/06/22 05:37:49;;;;;;;13.38;1.08;;;18.90;99.20;;;;;;5072949;28;20050;-68
2021/06/22 05:40:15;;;;;;;2.28;0.70;;;19.10;99.90;;;;;;5106518;28;20028;-68
2021/06/22 05:42:41;;;;;;;4.28;0.57;;;19.60;99.90;;;;;;5091718;28;20046;-68
2021/06/22 05:45:07;;;;;;;0.38;0.20;;;19.90;99.90;;;;;;5091703;28;20077;-67
2021/06/22 05:47:33;;;;;;;0.32;0.30;;;20.00;98.20;;;;;;5091115;28;20043;-67
2021/06/22 05:50:00;;;;;;;3.67;0.50;;;20.10;98.20;;;;;;5091053;28;20032;-68
2021/06/22 05:52:26;;;;;;;2.13;0.85;;;20.30;97.70;;;;;;5090142;28;20420;-68
2021/06/22 05:54:51;;;;;;;3.63;0.47;;;20.50;99.10;;;;;;5071909;28;20446;-67
2021/06/22 05:57:17;;;;;;;7.97;0.40;;;20.60;98.60;;;;;;5090126;28;20435;-67
2021/06/22 05:59:43;;;;;;;2.38;0.30;;;20.70;97.10;;;;;;5089627;28;20169;-67
2021/06/22 06:02:08;;;;;;;1.52;0.40;;;20.80;96.20;;;;;;5089477;28;20141;-66
2021/06/22 06:04:34;;;;;;;1.17;0.38;;;20.70;97.10;;;;;;5071891;28;20024;-67
2021/06/22 06:07:00;;;;;;;2.67;0.32;;;20.70;97.10;;;;;;5071809;28;20032;-69
2021/06/22 06:09:26;;;;;;;1.38;0.52;;;20.80;98.40;;;;;;5071414;28;20509;-70
2021/06/22 06:11:52;;;;;;;0.80;0.10;;;22.10;98.10;;;;;;5090299;28;20069;-67
2021/06/22 06:14:18;;;;;;;2.20;0.47;;;22.20;94.70;;;;;;5089234;28;20101;-69
2021/06/22 06:16:43;;;;;;;0.82;0.15;;;21.80;94.40;;;;;;5071560;28;20049;-68
2021/06/22 06:19:09;;;;;;;2.00;0.50;;;21.60;95.00;;;;;;5104360;28;20154;-67
2021/06/22 06:21:38;;;;;;;0.60;0.30;;;21.60;95.20;;;;;;5090642;28;20020;-67
2021/06/22 06:24:05;;;;;;;0.75;0.30;;;21.40;95.60;;;;;;5071176;28;20526;-67
2021/06/22 06:26:36;;;;;;;0.50;0.40;;;21.30;94.10;;;;;;5105659;28;20115;-67
2021/06/22 06:30:04;;;;;;;0.75;0.50;;;21.30;95.60;;;;;;5090191;28;20024;-67
2021/06/22 06:31:57;;;;;;;0.93;0.52;;;21.20;95.00;;;;;;5075820;28;20044;-67
2021/06/22 06:34:23;;;;;;;1.80;0.40;;;21.20;95.40;;;;;;5088990;28;20093;-68
2021/06/22 06:36:48;;;;;;;0.60;0.40;;;21.20;94.50;;;;;;5104850;28;20137;-69
2021/06/22 06:39:14;;;;;;;1.17;0.20;;;21.30;94.70;;;;;;5088553;28;20052;-68
2021/06/22 06:41:40;;;;;;;0.98;0.30;;;21.40;94.70;;;;;;5071342;28;20427;-69
2021/06/22 06:44:06;;;;;;;0.40;0.20;;;21.60;95.00;;;;;;5070981;28;20035;-71
2021/06/22 06:46:32;;;;;;;1.48;0.40;;;21.80;94.20;;;;;;5070892;28;20032;-68
2021/06/22 06:48:57;;;;;;;1.65;0.28;;;21.60;93.60;;;;;;5071546;28;20380;-67
2021/06/22 06:51:23;;;;;;;1.85;0.63;;;21.40;93.80;;;;;;5103725;28;20437;-66
2021/06/22 06:53:48;;;;;;;2.97;0.35;;;21.40;94.30;;;;;;5088987;28;20028;-67
2021/06/22 06:56:14;;;;;;;1.20;0.20;;;21.50;94.50;;;;;;5088414;28;20047;-66
2021/06/22 06:58:40;;;;;;;0.88;0.32;;;21.40;94.70;;;;;;5089380;28;20036;-68
2021/06/22 07:01:06;;;;;;;1.88;0.20;;;21.60;94.30;;;;;;5104678;28;20392;-71
2021/06/22 07:03:31;;;;;;;1.13;0.60;;;21.70;94.00;;;;;;5089160;28;20036;-67
2021/06/22 07:05:57;;;;;;;0.60;0.28;;;21.50;93.60;;;;;;5070805;28;20028;-66
2021/06/22 07:08:22;;;;;;;3.13;0.55;;;21.50;93.50;;;;;;5088560;28;20077;-70
2021/06/22 07:10:48;;;;;;;1.67;0.50;;;22.10;94.70;;;;;;5070693;28;20031;-68
2021/06/22 07:13:16;;;;;;;5.05;0.70;;;22.30;93.60;;;;;;5104301;28;20123;-68
2021/06/22 07:15:42;;;;;;;2.80;0.20;;;22.70;93.30;;;;;;5089186;28;20445;-69
2021/06/22 07:18:08;;;;;;;0.77;0.20;;;22.70;92.60;;;;;;5103264;28;20032;-68
2021/06/22 07:20:33;;;;;;;6.60;0.60;;;22.60;92.80;;;;;;5070705;28;20492;-69
2021/06/22 07:22:59;;;;;;;3.10;0.43;;;22.90;93.30;;;;;;5089382;28;20308;-68
2021/06/22 07:25:26;;;;;;;1.92;0.38;;;23.10;92.40;;;;;;5088370;28;20031;-68
2021/06/22 07:27:56;;;;;;;4.72;0.43;;;23.40;92.60;;;;;;5070709;28;20508;-69
2021/06/22 07:30:26;;;;;;;2.03;0.50;;;23.60;92.40;;;;;;5088063;28;20032;-69
2021/06/22 07:32:53;;;;;;;1.80;0.43;;;23.80;91.00;;;;;;5070500;28;20198;-69
2021/06/22 07:35:19;;;;;;;2.75;0.40;;;23.90;91.20;;;;;;5069955;28;20039;-69
2021/06/22 07:37:45;;;;;;;3.35;0.57;;;23.70;91.10;;;;;;5088688;28;20024;-67
2021/06/22 07:40:12;;;;;;;4.28;0.50;;;23.70;90.90;;;;;;5069280;28;20069;-68
2021/06/22 07:42:37;;;;;;;0.73;0.30;;;23.70;90.20;;;;;;5070482;28;20020;-66
2021/06/22 07:45:06;;;;;;;1.77;0.47;;;23.70;91.20;;;;;;5088199;28;20458;-62
2021/06/22 07:47:32;;;;;;;2.38;0.52;;;23.70;91.20;;;;;;5069543;28;20406;-63
2021/06/22 07:49:58;;;;;;;1.05;0.40;;;23.40;90.90;;;;;;5069756;28;20111;-64
2021/06/22 07:52:24;;;;;;;3.05;0.20;;;23.10;90.70;;;;;;5068575;28;20115;-60
2021/06/22 07:54:49;;;;;;;5.45;0.82;;;23.10;91.30;;;;;;5054116;28;20046;-62
2021/06/22 07:57:16;;;;;;;6.30;1.00;;;22.80;92.40;;;;;;5087869;28;20525;-63
2021/06/22 07:59:41;;;;;;;2.58;0.50;;;22.70;96.30;;;;;;5088417;28;20090;-62
2021/06/22 08:02:08;;;;;;;11.75;0.98;;;22.80;94.00;;;;;;5069204;28;20024;-65
2021/06/22 08:04:34;;;;;;;1.70;0.57;;;23.20;92.50;;;;;;5088265;28;20388;-64
2021/06/22 08:07:01;;;;;;;3.95;0.30;;;23.00;92.80;;;;;;5070170;28;20145;-62
2021/06/22 08:09:27;;;;;;;3.45;0.50;;;23.10;92.50;;;;;;5069266;28;20203;-62
2021/06/22 08:11:52;;;;;;;3.30;0.50;;;22.90;92.20;;;;;;5103668;28;20092;-63
2021/06/22 08:14:18;;;;;;;1.63;0.35;;;23.00;92.50;;;;;;5103046;28;20024;-62
2021/06/22 08:16:44;;;;;;;2.78;0.43;;;22.90;92.30;;;;;;5088313;28;20411;-62
2021/06/22 08:19:10;;;;;;;0.35;0.30;;;22.80;91.80;;;;;;5087316;28;20056;-62
2021/06/22 08:21:36;;;;;;;1.05;0.20;;;22.80;92.30;;;;;;5088534;28;20031;-63
2021/06/22 08:24:02;;;;;;;1.20;0.28;;;22.80;91.80;;;;;;5069648;28;20472;-62
2021/06/22 08:26:28;;;;;;;2.95;0.43;;;22.80;92.00;;;;;;5087244;28;20103;-62
2021/06/22 08:28:54;;;;;;;1.23;0.25;;;22.70;91.30;;;;;;5087717;28;20143;-62
2021/06/22 08:31:20;;;;;;;2.67;0.30;;;22.80;92.40;;;;;;5087301;28;20462;-63
2021/06/22 08:33:46;;;;;;;0.73;0.20;;;22.90;91.40;;;;;;5088332;28;20017;-63
2021/06/22 08:36:13;;;;;;;1.20;0.20;;;23.10;91.60;;;;;;5087530;28;20114;-63
2021/06/22 08:38:39;;;;;;;3.47;0.50;;;23.30;91.50;;;;;;5069927;28;20320;-63
2021/06/22 08:41:07;;;;;;;1.02;0.20;;;23.30;90.90;;;;;;5103395;28;20031;-62
2021/06/22 08:43:33;;;;;;;1.20;0.28;;;23.50;91.50;;;;;;5088166;28;20032;-64
2021/06/22 08:46:08;;;;;;;0.55;0.20;;;23.60;91.70;;;;;;5087737;28;20028;-62
2021/06/22 08:48:34;;;;;;;2.40;0.30;;;24.00;91.00;;;;;;5068833;28;20032;-61
2021/06/22 08:51:00;;;;;;;1.52;0.32;;;23.70;90.20;;;;;;5088167;28;20107;-61
2021/06/22 08:53:27;;;;;;;2.58;0.30;;;23.90;90.20;;;;;;5087749;28;20323;-62
2021/06/22 08:55:53;;;;;;;3.60;0.20;;;23.70;90.70;;;;;;5088040;28;20449;-62
2021/06/22 08:58:20;;;;;;;0.85;0.30;;;23.40;90.40;;;;;;5068835;28;20028;-62
2021/06/22 09:00:51;;;;;;;0.30;0.20;;;23.40;91.40;;;;;;5069723;28;20032;-63
2021/06/22 09:03:18;;;;;;;1.00;0.10;;;23.50;91.20;;;;;;5071966;28;20024;-52
2021/06/22 09:05:48;;;;;;;2.55;0.32;;;23.70;90.60;;;;;;5071384;28;20042;-53
2021/06/22 09:08:28;;;;;;;4.10;0.17;;;23.80;89.70;;;;;;5105663;28;20058;-52
2021/06/22 09:11:14;;;;;;;1.52;0.20;;;24.00;90.60;;;;;;5091393;28;20052;-52
2021/06/22 09:13:43;;;;;;;0.80;0.57;;;24.10;89.90;;;;;;5072771;28;20036;-53
2021/06/22 09:16:15;;;;;;;1.20;0.40;;;24.10;90.20;;;;;;5072064;28;20035;-53
2021/06/22 09:18:45;;;;;;;1.88;0.22;;;24.20;89.30;;;;;;5090756;28;20048;-52
2021/06/22 09:21:19;;;;;;;0.50;0.20;;;24.30;90.10;;;;;;5071728;28;20126;-55
2021/06/22 09:23:46;;;;;;;3.70;0.63;;;24.30;89.90;;;;;;5072627;28;20024;-52
2021/06/22 09:26:17;;;;;;;0.93;0.25;;;24.20;89.20;;;;;;5090540;28;20125;-52
2021/06/22 09:28:44;;;;;;;3.78;0.80;;;24.20;89.50;;;;;;5106114;28;20123;-53
2021/06/22 09:31:12;;;;;;;2.72;0.22;;;24.20;88.40;;;;;;5072215;28;20020;-53
2021/06/22 09:33:43;;;;;;;0.95;0.25;;;24.00;90.10;;;;;;5072307;28;20427;-53
2021/06/22 09:36:16;;;;;;;;;;;24.00;90.10;;;;;;5089571;28;20058;-53
2021/06/22 09:38:52;;;;;;;0.80;0.40;;;24.20;89.20;;;;;;5072319;28;19941;-53
2021/06/22 09:41:22;;;;;;;2.97;0.43;;;24.40;89.60;;;;;;5090035;28;20162;-55
2021/06/22 09:43:57;;;;;;;1.65;0.40;;;24.40;88.90;;;;;;5090869;28;20374;-54
2021/06/22 09:46:35;;;;;;;0.52;0.28;;;24.50;89.10;;;;;;5089743;28;20045;-51
2021/06/22 09:49:01;;;;;;;0.73;0.30;;;24.60;89.10;;;;;;5106188;28;20153;-53
2021/06/22 09:51:31;;;;;;;1.02;0.20;;;24.40;89.00;;;;;;5090605;28;20039;-53
2021/06/22 09:54:18;;;;;;;0.95;0.50;;;24.60;88.90;;;;;;5071806;28;20032;-54
2021/06/22 09:57:14;;;;;;;0.52;0.32;;;24.50;88.80;;;;;;5090653;28;20445;-52
2021/06/22 10:00:06;;;;;;;0.77;0.38;;;24.60;88.20;;;;;;5090624;28;20453;-53
2021/06/22 10:02:49;;;;;;;0.70;0.50;;;24.40;89.30;;;;;;5090455;28;20028;-52
2021/06/22 10:05:17;;;;;;;7.80;0.60;;;24.40;89.00;;;;;;5089837;28;20032;-52
2021/06/22 10:07:43;;;;;;;2.28;0.50;;;24.40;89.20;;;;;;5072226;28;20046;-52
2021/06/22 10:10:09;;;;;;;6.20;0.47;;;24.50;89.00;;;;;;5071284;28;20036;-52
2021/06/22 10:12:41;;;;;;;2.95;0.85;;;24.60;89.00;;;;;;5071784;28;20024;-53
2021/06/22 10:15:08;;;;;;;7.90;0.82;;;24.60;88.40;;;;;;5089036;28;20039;-55
2021/06/22 10:17:34;;;;;;;4.47;0.50;;;24.50;89.00;;;;;;5071845;28;20165;-51
2021/06/22 10:20:03;;;;;;;3.17;0.70;;;24.60;88.90;;;;;;5071257;28;20203;-51
2021/06/22 10:22:31;;;;;;;0.88;0.45;;;24.60;88.90;;;;;;5070895;28;20036;-51
2021/06/22 10:24:59;;;;;;;1.27;0.45;;;24.60;88.90;;;;;;5089686;28;20024;-54
2021/06/22 10:27:28;;;;;;;1.77;0.40;;;24.60;88.60;;;;;;5089198;28;20256;-51
2021/06/22 10:29:56;;;;;;;0.60;0.40;;;24.60;88.90;;;;;;5071264;28;20024;-52
2021/06/22 10:32:24;;;;;;;1.10;0.40;;;24.60;88.30;;;;;;5070687;28;20020;-52
2021/06/22 10:34:53;;;;;;;0.73;0.40;;;24.40;88.50;;;;;;5054698;28;20051;-52
2021/06/22 10:37:22;;;;;;;0.40;0.20;;;24.40;89.20;;;;;;5089266;28;20085;-54
2021/06/22 10:40:19;;;;;;;1.70;0.50;;;24.60;89.00;;;;;;5089066;28;20115;-53
2021/06/22 10:42:53;;;;;;;5.47;0.50;;;24.90;88.50;;;;;;5054946;28;20128;-51
2021/06/22 10:45:19;;;;;;;0.57;0.22;;;24.90;88.00;;;;;;5088973;28;20030;-52
2021/06/22 10:47:46;;;;;;;1.90;0.47;;;24.80;88.20;;;;;;5070718;28;20040;-54
2021/06/22 10:50:15;;;;;;;0.82;0.32;;;24.70;88.10;;;;;;5070412;28;20519;-52
2021/06/22 10:52:46;;;;;;;1.17;0.35;;;24.80;88.40;;;;;;5089319;28;20077;-53
2021/06/22 10:55:21;;;;;;;2.33;0.63;;;24.80;87.70;;;;;;5103630;28;20114;-52
2021/06/22 11:00:29;;;;;;;3.40;0.93;;;24.40;89.20;;;;;;5088372;28;20058;-52
2021/06/22 11:03:04;;;;;;;1.05;0.40;;;24.60;89.00;;;;;;5070380;28;20028;-52
2021/06/22 11:05:31;;;;;;;2.55;0.30;;;24.60;89.00;;;;;;5088405;28;20137;-53
2021/06/22 11:08:09;;;;;;;3.15;0.40;;;24.40;89.70;;;;;;5088824;28;20032;-52
2021/06/22 11:10:36;;;;;;;0.80;0.60;;;24.60;89.30;;;;;;5103902;28;20446;-51
2021/06/22 11:13:03;;;;;;;1.95;0.88;;;24.70;88.80;;;;;;5078513;28;20031;-51
2021/06/22 11:15:49;;;;;;;0.55;0.52;;;24.80;87.90;;;;;;5075948;28;20032;-51
2021/06/22 11:18:18;;;;;;;3.90;0.60;;;24.80;88.00;;;;;;5067453;28;20040;-53
2021/06/22 11:21:05;;;;;;;1.10;0.57;;;24.80;88.30;;;;;;5071377;28;20103;-53
2021/06/22 11:23:31;;;;;;;0.57;0.32;;;24.80;88.40;;;;;;5087547;28;20365;-53
2021/06/22 11:26:05;;;;;;;2.97;0.98;;;24.80;88.80;;;;;;5087061;28;20054;-52
2021/06/22 11:28:58;;;;;;;1.13;0.40;;;24.90;89.00;;;;;;5068388;28;20043;-52
2021/06/22 11:31:35;;;;;;;1.15;0.63;;;25.00;88.70;;;;;;5068786;28;20569;-54
2021/06/22 11:34:09;;;;;;;0.85;0.38;;;25.20;87.10;;;;;;5102487;28;20138;-51
2021/06/22 11:36:46;;;;;;;1.55;0.40;;;25.10;86.50;;;;;;5103096;28;20119;-53
2021/06/22 11:39:18;;;;;;;0.93;0.50;;;25.20;87.90;;;;;;5087129;28;20032;-51
2021/06/22 11:42:12;;;;;;;2.13;0.45;;;25.30;87.10;;;;;;5087072;28;20030;-53
2021/06/22 11:44:53;;;;;;;1.08;0.38;;;25.40;87.60;;;;;;5087233;28;20109;-52
2021/06/22 11:47:25;;;;;;;;;;;25.40;87.50;;;;;;5087594;28;20052;-52
2021/06/22 11:49:56;;;;;;;3.50;0.63;;;25.40;87.10;;;;;;5069887;28;19915;-53
2021/06/22 11:52:30;;;;;;;;;;;25.40;87.20;;;;;;5071254;28;20119;-51
2021/06/22 11:55:16;;;;;;;1.63;0.30;;;25.40;87.60;;;;;;5089404;28;19904;-51
2021/06/22 11:57:55;;;;;;;1.98;0.55;;;25.10;86.50;;;;;;5071972;28;20025;-52
2021/06/22 12:00:24;;;;;;;3.45;0.50;;;24.90;87.80;;;;;;5104218;28;20070;-51
2021/06/22 12:02:52;;;;;;;0.85;0.35;;;24.90;88.50;;;;;;5071168;28;20430;-51
2021/06/22 12:05:19;;;;;;;1.80;0.77;;;24.80;88.60;;;;;;5103750;28;20027;-51
2021/06/22 12:07:50;;;;;;;1.63;0.40;;;24.80;88.70;;;;;;5104869;28;20024;-51
2021/06/22 12:10:17;;;;;;;2.22;0.52;;;24.70;88.70;;;;;;5088531;28;20031;-51
2021/06/22 12:12:45;;;;;;;1.45;0.50;;;24.70;88.10;;;;;;5070731;28;20059;-51
2021/06/22 12:15:12;;;;;;;2.55;0.88;;;24.60;88.70;;;;;;5070509;28;20035;-58
2021/06/22 12:17:37;;;;;;;1.15;0.30;;;24.60;89.00;;;;;;5089252;28;20028;-50
2021/06/22 12:20:19;;;;;;;1.15;0.38;;;24.60;89.10;;;;;;5105076;28;20151;-52
2021/06/22 12:23:04;;;;;;;0.68;0.20;;;24.70;89.20;;;;;;5071455;28;20050;-51
2021/06/22 12:25:40;;;;;;;0.38;0.30;;;24.60;88.70;;;;;;5069961;28;20028;-52
2021/06/22 12:28:13;;;;;;;3.00;0.60;;;24.40;89.40;;;;;;5089496;28;20027;-52
2021/06/22 12:30:46;;;;;;;4.28;0.40;;;24.40;90.00;;;;;;5071141;28;20031;-52
2021/06/22 12:33:18;;;;;;;2.80;0.50;;;24.40;90.00;;;;;;5088564;28;20024;-51
2021/06/22 12:35:47;;;;;;;2.80;0.60;;;24.40;90.00;;;;;;5104875;28;20054;-51
2021/06/22 12:38:14;;;;;;;1.95;0.38;;;24.30;90.00;;;;;;5091094;28;20052;-51
2021/06/22 12:40:54;;;;;;;1.92;0.80;;;24.40;90.10;;;;;;5075018;28;20396;-52
2021/06/22 12:43:37;;;;;;;3.80;0.38;;;24.30;89.70;;;;;;5092880;28;20650;-53
2021/06/22 12:46:04;;;;;;;1.27;0.65;;;24.30;90.10;;;;;;5075530;28;20118;-52
2021/06/22 12:48:30;;;;;;;2.80;0.50;;;24.20;90.10;;;;;;5092396;28;20052;-52
2021/06/22 12:50:57;;;;;;;1.33;0.50;;;24.10;90.20;;;;;;5075096;28;20040;-53
2021/06/22 12:53:23;;;;;;;0.80;0.28;;;24.00;90.80;;;;;;5108512;28;20035;-52
2021/06/22 12:55:50;;;;;;;1.75;0.50;;;24.10;90.50;;;;;;5092925;28;20028;-51